sensor_id;sensor_type;location;lat;lon;timestamp;pressure;altitude;pressure_sealevel;temperature;humidity
29733;BME280;16643;43.158;25.302;2022-07-29T00:01:49;98051.28;;;22.56;84.81
29733;BME280;16643;43.158;25.302;2022-07-29T00:04:17;97999.66;;;22.17;85.94
29733;BME280;16643;43.158;25.302;2022-07-29T00:06:43;98020.72;;;22.29;86.64
29733;BME280;16643;43.158;25.302;2022-07-29T00:09:09;98039.13;;;22.42;86.65
29733;BME280;16643;43.158;25.302;2022-07-29T00:11:34;98021.91;;;22.36;85.88
29733;BME280;16643;43.158;25.302;2022-07-29T00:14:00;98002.53;;;22.14;86.04
29733;BME280;16643;43.158;25.302;2022-07-29T00:16:26;98030.69;;;22.15;86.87
29733;BME280;16643;43.158;25.302;2022-07-29T00:18:51;97997.59;;;21.87;87.46
29733;BME280;16643;43.158;25.302;2022-07-29T00:21:17;97984.56;;;21.95;87.30
29733;BME280;16643;43.158;25.302;2022-07-29T00:23:43;97993.75;;;22.13;87.50
29733;BME280;16643;43.158;25.302;2022-07-29T00:26:08;97981.50;;;22.12;86.94
29733;BME280;16643;43.158;25.302;2022-07-29T00:28:34;97994.09;;;21.97;87.19
29733;BME280;16643;43.158;25.302;2022-07-29T00:30:59;98012.84;;;21.83;88.50
29733;BME280;16643;43.158;25.302;2022-07-29T00:33:25;98031.03;;;21.88;88.62
29733;BME280;16643;43.158;25.302;2022-07-29T00:35:51;98039.16;;;22.08;88.87
29733;BME280;16643;43.158;25.302;2022-07-29T00:38:20;97955.44;;;21.72;88.19
29733;BME280;16643;43.158;25.302;2022-07-29T00:40:46;97946.78;;;21.82;87.53
29733;BME280;16643;43.158;25.302;2022-07-29T00:43:13;98032.16;;;22.30;86.89
29733;BME280;16643;43.158;25.302;2022-07-29T00:45:41;97989.06;;;22.05;86.83
29733;BME280;16643;43.158;25.302;2022-07-29T00:48:06;98021.78;;;22.16;86.49
29733;BME280;16643;43.158;25.302;2022-07-29T00:50:34;97966.38;;;21.79;86.28
29733;BME280;16643;43.158;25.302;2022-07-29T00:53:03;98016.22;;;21.96;86.22
29733;BME280;16643;43.158;25.302;2022-07-29T00:55:29;97972.38;;;21.59;87.00
29733;BME280;16643;43.158;25.302;2022-07-29T00:57:56;98029.13;;;22.01;87.97
29733;BME280;16643;43.158;25.302;2022-07-29T01:00:24;98039.50;;;22.15;87.52
29733;BME280;16643;43.158;25.302;2022-07-29T01:02:50;97973.88;;;21.85;86.76
29733;BME280;16643;43.158;25.302;2022-07-29T01:05:18;97977.72;;;21.92;85.75
29733;BME280;16643;43.158;25.302;2022-07-29T01:07:46;97974.63;;;21.98;85.88
29733;BME280;16643;43.158;25.302;2022-07-29T01:10:13;97981.72;;;22.09;85.30
29733;BME280;16643;43.158;25.302;2022-07-29T01:12:40;98020.38;;;22.23;85.38
29733;BME280;16643;43.158;25.302;2022-07-29T01:15:09;98002.19;;;22.07;86.04
29733;BME280;16643;43.158;25.302;2022-07-29T01:17:45;98036.13;;;22.35;85.25
29733;BME280;16643;43.158;25.302;2022-07-29T01:23:01;98036.25;;;22.34;84.97
29733;BME280;16643;43.158;25.302;2022-07-29T01:25:50;98033.13;;;22.29;84.88
29733;BME280;16643;43.158;25.302;2022-07-29T01:28:47;97974.63;;;21.98;85.46
29733;BME280;16643;43.158;25.302;2022-07-29T01:31:17;98030.59;;;22.27;85.27
29733;BME280;16643;43.158;25.302;2022-07-29T01:33:49;97976.91;;;22.03;85.01
29733;BME280;16643;43.158;25.302;2022-07-29T01:36:39;97976.31;;;21.99;84.08
29733;BME280;16643;43.158;25.302;2022-07-29T01:39:10;98034.56;;;22.44;84.53
29733;BME280;16643;43.158;25.302;2022-07-29T01:41:56;98028.16;;;22.35;84.86
29733;BME280;16643;43.158;25.302;2022-07-29T01:44:31;98025.66;;;22.23;84.93
29733;BME280;16643;43.158;25.302;2022-07-29T01:47:01;97974.88;;;22.06;84.93
29733;BME280;16643;43.158;25.302;2022-07-29T01:49:36;98036.50;;;22.42;85.03
29733;BME280;16643;43.158;25.302;2022-07-29T01:52:07;97955.00;;;22.01;84.46
29733;BME280;16643;43.158;25.302;2022-07-29T01:54:54;97960.06;;;22.04;85.16
29733;BME280;16643;43.158;25.302;2022-07-29T01:57:27;98027.81;;;22.29;85.62
29733;BME280;16643;43.158;25.302;2022-07-29T01:59:55;97961.47;;;21.86;86.20
29733;BME280;16643;43.158;25.302;2022-07-29T02:02:22;97993.50;;;22.05;86.12
29733;BME280;16643;43.158;25.302;2022-07-29T02:04:49;97980.00;;;21.97;85.62
29733;BME280;16643;43.158;25.302;2022-07-29T02:07:18;97929.47;;;21.55;86.47
29733;BME280;16643;43.158;25.302;2022-07-29T02:09:45;97962.53;;;21.72;86.82
29733;BME280;16643;43.158;25.302;2022-07-29T02:12:13;97968.56;;;21.63;86.37
29733;BME280;16643;43.158;25.302;2022-07-29T02:14:44;97930.00;;;21.25;87.44
29733;BME280;16643;43.158;25.302;2022-07-29T02:17:12;98015.03;;;21.32;90.37
29733;BME280;16643;43.158;25.302;2022-07-29T02:19:39;97991.94;;;21.34;88.99
29733;BME280;16643;43.158;25.302;2022-07-29T02:22:06;97945.28;;;21.22;88.77
29733;BME280;16643;43.158;25.302;2022-07-29T02:24:33;97931.44;;;21.18;88.13
29733;BME280;16643;43.158;25.302;2022-07-29T02:27:02;98010.16;;;21.61;88.33
29733;BME280;16643;43.158;25.302;2022-07-29T02:29:30;97985.38;;;21.51;89.13
29733;BME280;16643;43.158;25.302;2022-07-29T02:31:58;97999.59;;;21.61;89.38
29733;BME280;16643;43.158;25.302;2022-07-29T02:34:25;97944.19;;;21.24;88.74
29733;BME280;16643;43.158;25.302;2022-07-29T02:36:54;97963.69;;;21.34;88.32
29733;BME280;16643;43.158;25.302;2022-07-29T02:39:23;97952.75;;;21.28;88.25
29733;BME280;16643;43.158;25.302;2022-07-29T02:41:57;98022.97;;;21.78;87.98
29733;BME280;16643;43.158;25.302;2022-07-29T02:44:24;97997.78;;;21.61;87.90
29733;BME280;16643;43.158;25.302;2022-07-29T02:47:08;98023.19;;;21.75;88.67
29733;BME280;16643;43.158;25.302;2022-07-29T02:49:58;98010.66;;;21.66;89.03
29733;BME280;16643;43.158;25.302;2022-07-29T02:52:37;97965.47;;;21.23;88.05
29733;BME280;16643;43.158;25.302;2022-07-29T02:55:09;98030.91;;;21.78;88.02
29733;BME280;16643;43.158;25.302;2022-07-29T02:57:41;97961.03;;;21.34;88.43
29733;BME280;16643;43.158;25.302;2022-07-29T03:00:08;98031.72;;;21.79;88.41
29733;BME280;16643;43.158;25.302;2022-07-29T03:02:42;98015.13;;;21.65;88.25
29733;BME280;16643;43.158;25.302;2022-07-29T03:05:13;98035.72;;;21.84;88.83
29733;BME280;16643;43.158;25.302;2022-07-29T03:07:43;98041.13;;;21.83;88.40
29733;BME280;16643;43.158;25.302;2022-07-29T03:10:12;97985.81;;;21.45;89.11
29733;BME280;16643;43.158;25.302;2022-07-29T03:12:38;97969.69;;;21.25;88.63
29733;BME280;16643;43.158;25.302;2022-07-29T03:15:06;97998.56;;;21.40;88.12
29733;BME280;16643;43.158;25.302;2022-07-29T03:17:32;97991.38;;;21.42;88.58
29733;BME280;16643;43.158;25.302;2022-07-29T03:19:58;98047.97;;;21.74;89.28
29733;BME280;16643;43.158;25.302;2022-07-29T03:22:25;97996.91;;;21.50;88.93
29733;BME280;16643;43.158;25.302;2022-07-29T03:24:50;97993.31;;;21.51;88.22
29733;BME280;16643;43.158;25.302;2022-07-29T03:27:17;98019.06;;;21.60;88.14
29733;BME280;16643;43.158;25.302;2022-07-29T03:29:43;98021.78;;;21.47;87.97
29733;BME280;16643;43.158;25.302;2022-07-29T03:32:08;97996.88;;;21.38;89.31
29733;BME280;16643;43.158;25.302;2022-07-29T03:34:35;98047.44;;;21.58;89.03
29733;BME280;16643;43.158;25.302;2022-07-29T03:37:01;98001.19;;;21.28;88.20
29733;BME280;16643;43.158;25.302;2022-07-29T03:39:29;98009.84;;;21.30;88.73
29733;BME280;16643;43.158;25.302;2022-07-29T03:41:57;98059.25;;;21.65;89.28
29733;BME280;16643;43.158;25.302;2022-07-29T03:44:26;98056.94;;;21.60;88.84
29733;BME280;16643;43.158;25.302;2022-07-29T03:46:53;98085.91;;;21.86;89.03
29733;BME280;16643;43.158;25.302;2022-07-29T03:49:21;98090.34;;;21.85;88.50
29733;BME280;16643;43.158;25.302;2022-07-29T03:51:49;98034.91;;;21.49;89.77
29733;BME280;16643;43.158;25.302;2022-07-29T03:54:15;98052.28;;;21.64;89.79
29733;BME280;16643;43.158;25.302;2022-07-29T03:56:42;98012.03;;;21.36;89.26
29733;BME280;16643;43.158;25.302;2022-07-29T03:59:13;98052.63;;;21.59;89.23
29733;BME280;16643;43.158;25.302;2022-07-29T04:01:39;98090.72;;;21.92;89.97
29733;BME280;16643;43.158;25.302;2022-07-29T04:04:05;98036.41;;;21.64;89.38
29733;BME280;16643;43.158;25.302;2022-07-29T04:06:44;98042.56;;;21.76;89.21
29733;BME280;16643;43.158;25.302;2022-07-29T04:09:11;98008.13;;;21.53;88.62
29733;BME280;16643;43.158;25.302;2022-07-29T04:11:39;98033.56;;;21.78;88.68
29733;BME280;16643;43.158;25.302;2022-07-29T04:14:05;98093.81;;;22.21;89.08
29733;BME280;16643;43.158;25.302;2022-07-29T04:16:31;98042.59;;;21.98;88.75
29733;BME280;16643;43.158;25.302;2022-07-29T04:18:56;98044.44;;;22.08;88.15
29733;BME280;16643;43.158;25.302;2022-07-29T04:21:22;98089.25;;;22.45;87.82
29733;BME280;16643;43.158;25.302;2022-07-29T04:23:48;98033.84;;;22.31;87.29
29733;BME280;16643;43.158;25.302;2022-07-29T04:26:16;98031.19;;;22.31;86.03
29733;BME280;16643;43.158;25.302;2022-07-29T04:28:42;98037.31;;;22.54;85.43
29733;BME280;16643;43.158;25.302;2022-07-29T04:31:08;98046.59;;;22.48;85.78
29733;BME280;16643;43.158;25.302;2022-07-29T04:33:34;98032.38;;;22.38;85.97
29733;BME280;16643;43.158;25.302;2022-07-29T04:36:00;98091.41;;;22.85;85.97
29733;BME280;16643;43.158;25.302;2022-07-29T04:38:25;98076.94;;;22.89;84.84
29733;BME280;16643;43.158;25.302;2022-07-29T04:40:51;98064.75;;;22.86;85.61
29733;BME280;16643;43.158;25.302;2022-07-29T04:43:17;98037.63;;;22.71;84.85
29733;BME280;16643;43.158;25.302;2022-07-29T04:45:42;98073.50;;;23.09;83.77
29733;BME280;16643;43.158;25.302;2022-07-29T04:48:08;98093.25;;;23.16;83.58
29733;BME280;16643;43.158;25.302;2022-07-29T04:50:34;98036.72;;;23.04;83.07
29733;BME280;16643;43.158;25.302;2022-07-29T04:53:00;98050.13;;;23.03;82.13
29733;BME280;16643;43.158;25.302;2022-07-29T04:55:25;98082.31;;;23.41;82.31
29733;BME280;16643;43.158;25.302;2022-07-29T04:57:51;98051.09;;;23.34;80.56
29733;BME280;16643;43.158;25.302;2022-07-29T05:00:17;98075.72;;;23.68;80.56
29733;BME280;16643;43.158;25.302;2022-07-29T05:02:42;98105.75;;;24.10;77.91
29733;BME280;16643;43.158;25.302;2022-07-29T05:05:08;98109.97;;;24.33;77.65
29733;BME280;16643;43.158;25.302;2022-07-29T05:07:34;98050.25;;;24.16;74.85
29733;BME280;16643;43.158;25.302;2022-07-29T05:10:00;98082.59;;;24.42;74.73
29733;BME280;16643;43.158;25.302;2022-07-29T05:12:26;98097.38;;;24.66;74.88
29733;BME280;16643;43.158;25.302;2022-07-29T05:14:52;98068.16;;;24.75;73.38
29733;BME280;16643;43.158;25.302;2022-07-29T05:17:17;98018.28;;;24.58;73.88
29733;BME280;16643;43.158;25.302;2022-07-29T05:19:43;98054.88;;;24.85;72.10
29733;BME280;16643;43.158;25.302;2022-07-29T05:22:09;98067.81;;;25.09;72.35
29733;BME280;16643;43.158;25.302;2022-07-29T05:24:35;98052.56;;;25.11;72.09
29733;BME280;16643;43.158;25.302;2022-07-29T05:27:00;98125.59;;;25.56;71.97
29733;BME280;16643;43.158;25.302;2022-07-29T05:29:26;98127.69;;;25.53;71.17
29733;BME280;16643;43.158;25.302;2022-07-29T05:31:52;98103.19;;;25.49;71.22
29733;BME280;16643;43.158;25.302;2022-07-29T05:34:19;98126.06;;;25.81;71.22
29733;BME280;16643;43.158;25.302;2022-07-29T05:36:45;98074.88;;;25.58;70.22
29733;BME280;16643;43.158;25.302;2022-07-29T05:39:10;98103.31;;;26.06;69.19
29733;BME280;16643;43.158;25.302;2022-07-29T05:41:38;98109.47;;;26.16;67.35
29733;BME280;16643;43.158;25.302;2022-07-29T05:44:04;98055.84;;;26.09;66.80
29733;BME280;16643;43.158;25.302;2022-07-29T05:46:30;98081.59;;;26.47;65.96
29733;BME280;16643;43.158;25.302;2022-07-29T05:48:55;98132.09;;;26.95;65.18
29733;BME280;16643;43.158;25.302;2022-07-29T05:51:21;98065.25;;;26.60;63.74
29733;BME280;16643;43.158;25.302;2022-07-29T05:53:47;98113.47;;;26.76;64.75
29733;BME280;16643;43.158;25.302;2022-07-29T05:56:13;98106.41;;;26.94;62.80
29733;BME280;16643;43.158;25.302;2022-07-29T05:58:39;98085.09;;;26.48;63.63
29733;BME280;16643;43.158;25.302;2022-07-29T06:01:05;98092.53;;;26.81;62.12
29733;BME280;16643;43.158;25.302;2022-07-29T06:03:30;98140.84;;;27.33;62.44
29733;BME280;16643;43.158;25.302;2022-07-29T06:05:56;98111.41;;;27.25;61.59
29733;BME280;16643;43.158;25.302;2022-07-29T06:08:22;98065.41;;;26.86;61.49
29733;BME280;16643;43.158;25.302;2022-07-29T06:10:47;98092.44;;;27.00;61.93
29733;BME280;16643;43.158;25.302;2022-07-29T06:13:13;98087.75;;;27.30;62.07
29733;BME280;16643;43.158;25.302;2022-07-29T06:15:41;98088.75;;;27.29;60.94
29733;BME280;16643;43.158;25.302;2022-07-29T06:18:07;98106.25;;;27.59;60.55
29733;BME280;16643;43.158;25.302;2022-07-29T06:20:35;98139.69;;;27.98;60.12
29733;BME280;16643;43.158;25.302;2022-07-29T06:23:01;98142.41;;;28.24;59.45
29733;BME280;16643;43.158;25.302;2022-07-29T06:25:30;98084.44;;;28.07;57.17
29733;BME280;16643;43.158;25.302;2022-07-29T06:27:56;98094.16;;;27.90;57.44
29733;BME280;16643;43.158;25.302;2022-07-29T06:30:21;98110.63;;;28.03;56.69
29733;BME280;16643;43.158;25.302;2022-07-29T06:32:48;98102.66;;;28.11;57.18
29733;BME280;16643;43.158;25.302;2022-07-29T06:35:14;98080.03;;;27.44;57.57
29733;BME280;16643;43.158;25.302;2022-07-29T06:37:40;98127.41;;;27.70;57.54
29733;BME280;16643;43.158;25.302;2022-07-29T06:40:06;98093.81;;;27.67;57.03
29733;BME280;16643;43.158;25.302;2022-07-29T06:42:50;98123.38;;;28.27;56.13
29733;BME280;16643;43.158;25.302;2022-07-29T06:45:16;98120.25;;;28.32;56.50
29733;BME280;16643;43.158;25.302;2022-07-29T06:47:42;98061.13;;;28.43;57.32
29733;BME280;16643;43.158;25.302;2022-07-29T06:50:08;98089.97;;;28.99;55.88
29733;BME280;16643;43.158;25.302;2022-07-29T06:52:37;98081.38;;;28.20;56.09
29733;BME280;16643;43.158;25.302;2022-07-29T06:55:03;98113.31;;;28.81;55.57
29733;BME280;16643;43.158;25.302;2022-07-29T06:57:29;98086.78;;;27.84;57.04
29733;BME280;16643;43.158;25.302;2022-07-29T06:59:58;98078.75;;;27.84;58.63
29733;BME280;16643;43.158;25.302;2022-07-29T07:02:24;98059.38;;;28.08;57.21
29733;BME280;16643;43.158;25.302;2022-07-29T07:04:49;98079.59;;;28.10;56.09
29733;BME280;16643;43.158;25.302;2022-07-29T07:07:15;98115.09;;;28.72;56.90
29733;BME280;16643;43.158;25.302;2022-07-29T07:09:41;98102.53;;;28.99;54.88
29733;BME280;16643;43.158;25.302;2022-07-29T07:12:07;98128.28;;;29.42;53.84
29733;BME280;16643;43.158;25.302;2022-07-29T07:14:33;98102.66;;;29.47;53.53
29733;BME280;16643;43.158;25.302;2022-07-29T07:16:59;98063.97;;;29.42;52.24
29733;BME280;16643;43.158;25.302;2022-07-29T07:19:26;98101.19;;;29.77;50.95
29733;BME280;16643;43.158;25.302;2022-07-29T07:21:55;98121.31;;;29.98;50.35
29733;BME280;16643;43.158;25.302;2022-07-29T07:24:20;98126.66;;;30.14;50.68
29733;BME280;16643;43.158;25.302;2022-07-29T07:26:46;98118.28;;;30.33;50.68
29733;BME280;16643;43.158;25.302;2022-07-29T07:29:12;98124.66;;;30.24;49.81
29733;BME280;16643;43.158;25.302;2022-07-29T07:31:38;98061.81;;;29.61;49.31
29733;BME280;16643;43.158;25.302;2022-07-29T07:34:04;98125.00;;;29.96;50.86
29733;BME280;16643;43.158;25.302;2022-07-29T07:36:30;98108.25;;;30.11;52.64
29733;BME280;16643;43.158;25.302;2022-07-29T07:38:56;98119.75;;;30.44;51.01
29733;BME280;16643;43.158;25.302;2022-07-29T07:41:22;98101.94;;;30.67;51.63
29733;BME280;16643;43.158;25.302;2022-07-29T07:43:48;98065.25;;;30.43;47.45
29733;BME280;16643;43.158;25.302;2022-07-29T07:46:14;98087.25;;;30.86;47.88
29733;BME280;16643;43.158;25.302;2022-07-29T07:48:40;98061.09;;;30.80;46.99
29733;BME280;16643;43.158;25.302;2022-07-29T07:51:05;98113.38;;;31.00;46.96
29733;BME280;16643;43.158;25.302;2022-07-29T07:53:33;98101.28;;;31.12;46.97
29733;BME280;16643;43.158;25.302;2022-07-29T07:55:59;98065.50;;;31.34;49.29
29733;BME280;16643;43.158;25.302;2022-07-29T07:58:24;98067.63;;;31.70;46.06
29733;BME280;16643;43.158;25.302;2022-07-29T08:00:50;98115.38;;;32.28;46.97
29733;BME280;16643;43.158;25.302;2022-07-29T08:03:16;98107.13;;;32.30;46.12
29733;BME280;16643;43.158;25.302;2022-07-29T08:05:41;98090.09;;;32.15;45.65
29733;BME280;16643;43.158;25.302;2022-07-29T08:08:07;98124.97;;;32.45;47.19
29733;BME280;16643;43.158;25.302;2022-07-29T08:10:33;98094.78;;;32.35;44.14
29733;BME280;16643;43.158;25.302;2022-07-29T08:13:20;98095.63;;;32.65;43.79
29733;BME280;16643;43.158;25.302;2022-07-29T08:15:46;98131.16;;;32.84;40.19
29733;BME280;16643;43.158;25.302;2022-07-29T08:18:13;98108.84;;;32.75;41.55
29733;BME280;16643;43.158;25.302;2022-07-29T08:20:39;98126.97;;;32.81;38.67
29733;BME280;16643;43.158;25.302;2022-07-29T08:23:07;98107.03;;;32.23;39.35
29733;BME280;16643;43.158;25.302;2022-07-29T08:25:36;98075.28;;;32.19;42.99
29733;BME280;16643;43.158;25.302;2022-07-29T08:28:04;98106.94;;;32.31;40.74
29733;BME280;16643;43.158;25.302;2022-07-29T08:30:29;98064.59;;;32.40;38.62
29733;BME280;16643;43.158;25.302;2022-07-29T08:32:55;98068.50;;;32.52;37.24
29733;BME280;16643;43.158;25.302;2022-07-29T08:35:23;98079.56;;;32.42;39.62
29733;BME280;16643;43.158;25.302;2022-07-29T08:37:49;98120.88;;;32.64;40.52
29733;BME280;16643;43.158;25.302;2022-07-29T08:40:16;98067.22;;;32.77;39.52
29733;BME280;16643;43.158;25.302;2022-07-29T08:42:42;98100.16;;;33.24;37.94
29733;BME280;16643;43.158;25.302;2022-07-29T08:45:08;98077.19;;;33.13;37.59
29733;BME280;16643;43.158;25.302;2022-07-29T08:47:33;98115.34;;;33.46;34.98
29733;BME280;16643;43.158;25.302;2022-07-29T08:50:04;98083.50;;;32.84;33.97
29733;BME280;16643;43.158;25.302;2022-07-29T08:52:31;98054.56;;;32.63;34.46
29733;BME280;16643;43.158;25.302;2022-07-29T08:54:58;98082.59;;;33.13;35.00
29733;BME280;16643;43.158;25.302;2022-07-29T08:57:25;98057.56;;;32.83;33.09
29733;BME280;16643;43.158;25.302;2022-07-29T08:59:52;98076.69;;;32.59;34.05
29733;BME280;16643;43.158;25.302;2022-07-29T09:02:21;98052.53;;;32.65;35.33
29733;BME280;16643;43.158;25.302;2022-07-29T09:04:47;98109.56;;;33.28;33.27
29733;BME280;16643;43.158;25.302;2022-07-29T09:07:19;98104.25;;;33.56;36.25
29733;BME280;16643;43.158;25.302;2022-07-29T09:09:44;98090.75;;;33.56;33.42
29733;BME280;16643;43.158;25.302;2022-07-29T09:12:11;98081.06;;;33.61;32.63
29733;BME280;16643;43.158;25.302;2022-07-29T09:14:39;98085.56;;;33.75;34.06
29733;BME280;16643;43.158;25.302;2022-07-29T09:17:06;98077.34;;;34.11;33.27
29733;BME280;16643;43.158;25.302;2022-07-29T09:19:36;98110.88;;;33.96;33.29
29733;BME280;16643;43.158;25.302;2022-07-29T09:22:04;98101.09;;;34.16;32.42
29733;BME280;16643;43.158;25.302;2022-07-29T09:26:59;98098.53;;;33.86;32.62
29733;BME280;16643;43.158;25.302;2022-07-29T09:29:26;98065.56;;;33.70;32.81
29733;BME280;16643;43.158;25.302;2022-07-29T09:31:54;98067.78;;;33.81;31.29
29733;BME280;16643;43.158;25.302;2022-07-29T09:34:28;98088.66;;;34.21;32.92
29733;BME280;16643;43.158;25.302;2022-07-29T09:36:56;98022.34;;;33.84;31.91
29733;BME280;16643;43.158;25.302;2022-07-29T09:39:38;98088.00;;;34.41;31.59
29733;BME280;16643;43.158;25.302;2022-07-29T09:42:13;98044.72;;;33.21;31.01
29733;BME280;16643;43.158;25.302;2022-07-29T09:44:47;98023.50;;;33.33;30.71
29733;BME280;16643;43.158;25.302;2022-07-29T09:47:14;98044.19;;;33.68;30.53
29733;BME280;16643;43.158;25.302;2022-07-29T09:50:10;98067.31;;;33.56;30.54
29733;BME280;16643;43.158;25.302;2022-07-29T09:52:45;98041.47;;;33.68;32.57
29733;BME280;16643;43.158;25.302;2022-07-29T09:55:12;98024.06;;;33.92;29.92
29733;BME280;16643;43.158;25.302;2022-07-29T09:57:37;98035.69;;;33.71;28.93
29733;BME280;16643;43.158;25.302;2022-07-29T10:00:14;98007.34;;;34.10;30.04
29733;BME280;16643;43.158;25.302;2022-07-29T10:02:42;98023.94;;;34.35;29.25
29733;BME280;16643;43.158;25.302;2022-07-29T10:05:23;98039.53;;;34.74;26.60
29733;BME280;16643;43.158;25.302;2022-07-29T10:07:54;98080.63;;;34.97;25.82
29733;BME280;16643;43.158;25.302;2022-07-29T10:10:29;98076.31;;;35.09;26.94
29733;BME280;16643;43.158;25.302;2022-07-29T10:12:56;98074.81;;;34.66;27.42
29733;BME280;16643;43.158;25.302;2022-07-29T10:15:31;98077.78;;;34.71;28.94
29733;BME280;16643;43.158;25.302;2022-07-29T10:18:03;98009.66;;;34.75;27.34
29733;BME280;16643;43.158;25.302;2022-07-29T10:20:28;97981.16;;;34.79;27.65
29733;BME280;16643;43.158;25.302;2022-07-29T10:22:54;98064.22;;;35.12;28.26
29733;BME280;16643;43.158;25.302;2022-07-29T10:25:21;98019.53;;;35.09;27.84
29733;BME280;16643;43.158;25.302;2022-07-29T10:27:48;98016.88;;;35.36;28.61
29733;BME280;16643;43.158;25.302;2022-07-29T10:30:17;98030.84;;;34.78;28.09
29733;BME280;16643;43.158;25.302;2022-07-29T10:35:53;98048.16;;;34.90;25.81
29733;BME280;16643;43.158;25.302;2022-07-29T10:38:41;98026.50;;;34.84;28.23
29733;BME280;16643;43.158;25.302;2022-07-29T10:41:17;98042.00;;;35.16;26.71
29733;BME280;16643;43.158;25.302;2022-07-29T10:44:07;98048.59;;;34.94;28.29
29733;BME280;16643;43.158;25.302;2022-07-29T10:46:38;98007.53;;;34.77;29.31
29733;BME280;16643;43.158;25.302;2022-07-29T10:57:21;98022.53;;;35.41;26.82
29733;BME280;16643;43.158;25.302;2022-07-29T11:00:25;98031.03;;;35.31;25.97
29733;BME280;16643;43.158;25.302;2022-07-29T11:02:52;97992.69;;;35.08;28.53
29733;BME280;16643;43.158;25.302;2022-07-29T11:05:20;98002.03;;;34.99;27.94
29733;BME280;16643;43.158;25.302;2022-07-29T11:10:42;97986.00;;;34.97;27.24
29733;BME280;16643;43.158;25.302;2022-07-29T11:13:09;98021.13;;;34.90;27.92
29733;BME280;16643;43.158;25.302;2022-07-29T11:15:54;98009.56;;;34.69;27.19
29733;BME280;16643;43.158;25.302;2022-07-29T11:18:20;97964.59;;;34.48;27.76
29733;BME280;16643;43.158;25.302;2022-07-29T11:20:47;98001.00;;;35.13;26.72
29733;BME280;16643;43.158;25.302;2022-07-29T11:23:25;98018.22;;;34.92;28.06
29733;BME280;16643;43.158;25.302;2022-07-29T11:34:29;98006.13;;;34.40;27.32
29733;BME280;16643;43.158;25.302;2022-07-29T11:39:33;97957.69;;;34.86;27.85
29733;BME280;16643;43.158;25.302;2022-07-29T11:42:59;98003.16;;;35.37;28.06
29733;BME280;16643;43.158;25.302;2022-07-29T11:50:15;97958.38;;;35.21;26.44
29733;BME280;16643;43.158;25.302;2022-07-29T11:52:45;97945.25;;;34.44;26.95
29733;BME280;16643;43.158;25.302;2022-07-29T11:55:17;97982.47;;;34.97;26.28
29733;BME280;16643;43.158;25.302;2022-07-29T12:00:25;97978.63;;;35.52;27.24
29733;BME280;16643;43.158;25.302;2022-07-29T12:02:51;97931.34;;;34.54;27.80
29733;BME280;16643;43.158;25.302;2022-07-29T12:05:17;97966.06;;;34.50;28.15
29733;BME280;16643;43.158;25.302;2022-07-29T12:07:43;97977.09;;;34.55;28.41
29733;BME280;16643;43.158;25.302;2022-07-29T12:10:09;97942.50;;;34.31;28.68
29733;BME280;16643;43.158;25.302;2022-07-29T12:12:35;97965.00;;;35.06;29.40
29733;BME280;16643;43.158;25.302;2022-07-29T12:15:16;97953.84;;;35.28;28.14
29733;BME280;16643;43.158;25.302;2022-07-29T12:17:49;97958.84;;;35.51;28.13
29733;BME280;16643;43.158;25.302;2022-07-29T12:20:29;97949.84;;;35.18;28.22
29733;BME280;16643;43.158;25.302;2022-07-29T12:22:55;97928.25;;;34.57;28.54
29733;BME280;16643;43.158;25.302;2022-07-29T12:25:22;97878.38;;;34.66;29.20
29733;BME280;16643;43.158;25.302;2022-07-29T12:28:03;97962.28;;;34.99;29.32
29733;BME280;16643;43.158;25.302;2022-07-29T12:30:42;97952.88;;;34.75;29.61
29733;BME280;16643;43.158;25.302;2022-07-29T12:33:25;97921.81;;;34.58;28.60
29733;BME280;16643;43.158;25.302;2022-07-29T12:35:56;97934.13;;;34.74;29.52
29733;BME280;16643;43.158;25.302;2022-07-29T12:38:22;97911.59;;;34.47;28.28
29733;BME280;16643;43.158;25.302;2022-07-29T12:40:49;97885.03;;;34.57;29.15
29733;BME280;16643;43.158;25.302;2022-07-29T12:43:17;97943.88;;;34.68;29.61
29733;BME280;16643;43.158;25.302;2022-07-29T12:45:52;97938.41;;;34.48;30.33
29733;BME280;16643;43.158;25.302;2022-07-29T12:48:41;97928.88;;;34.52;30.08
29733;BME280;16643;43.158;25.302;2022-07-29T12:51:11;97935.75;;;34.62;29.02
29733;BME280;16643;43.158;25.302;2022-07-29T12:53:39;97932.50;;;34.79;30.65
29733;BME280;16643;43.158;25.302;2022-07-29T12:56:05;97927.56;;;35.03;29.12
29733;BME280;16643;43.158;25.302;2022-07-29T12:58:39;97901.75;;;34.87;29.38
29733;BME280;16643;43.158;25.302;2022-07-29T13:01:16;97904.13;;;34.55;29.40
29733;BME280;16643;43.158;25.302;2022-07-29T13:03:56;97921.22;;;34.63;29.42
29733;BME280;16643;43.158;25.302;2022-07-29T13:09:12;97871.75;;;34.62;30.09
29733;BME280;16643;43.158;25.302;2022-07-29T13:11:39;97925.16;;;34.67;30.32
29733;BME280;16643;43.158;25.302;2022-07-29T13:14:06;97916.06;;;34.74;30.34
29733;BME280;16643;43.158;25.302;2022-07-29T13:16:33;97847.84;;;34.05;30.34
29733;BME280;16643;43.158;25.302;2022-07-29T13:19:08;97903.09;;;34.56;30.21
29733;BME280;16643;43.158;25.302;2022-07-29T13:21:35;97881.34;;;34.78;30.36
29733;BME280;16643;43.158;25.302;2022-07-29T13:24:01;97906.94;;;34.88;30.20
29733;BME280;16643;43.158;25.302;2022-07-29T13:26:27;97876.41;;;34.94;30.33
29733;BME280;16643;43.158;25.302;2022-07-29T13:28:54;97880.16;;;35.20;29.47
29733;BME280;16643;43.158;25.302;2022-07-29T13:31:19;97908.22;;;34.86;29.94
29733;BME280;16643;43.158;25.302;2022-07-29T13:33:45;97904.25;;;34.75;29.55
29733;BME280;16643;43.158;25.302;2022-07-29T13:36:11;97875.59;;;34.33;30.67
29733;BME280;16643;43.158;25.302;2022-07-29T13:38:36;97897.53;;;34.71;31.29
29733;BME280;16643;43.158;25.302;2022-07-29T13:41:02;97873.81;;;34.53;30.49